Justice, IL (60458)

01:10 AM CDT del 31 Ottobre 2014 (GMT -0500)
KC9POS / Hickory Hills | Change Station
CLOSE
Current Station
Stazione meteo personale
Location: Hickory Hills, IL
Altitudine: 610 ft
Stazioni meteo nelle vicinanze

Alt. 610 ft 41.72 °N, 87.82 °W | Updated 28 seconds ago

Coperto
Coperto
46.4 °F
Sembra 46 °F
N
0.7
Vento Variabile Vento da NO
Gusts 0.7 mph

Oggi
Massima -- | Minima -- °F
--% Possibilità di precip.
Ieri
Massima -- | Minima -- °F
Precip. -- in
7:22 AM 5:46 PM
Primo quarto, 52% visible
Pressione 30.04 in
Visibilità 10.0 miglia
Nuvole Molto nuvoloso 5000 ft
Coperto 11000 ft
Raffreddamento del vento 46 °F
Punto di rugiada 39 °F
Umidità 75%
Piovosità 0.00 in
Spessore del manto nevoso Non disponibile.
Raggi UV 0 fuori da 12
Polline .20 fuori da 12
Qualità dell'aria Non disponibile.
Flu Activity Non disponibile.
METAR KMDW 310553Z 27007KT 10SM -RA BKN050 OVC110 09/03 A3003 RMK AO2 RAB53 SLP170 P0000 60000 T00890028 10100 20089 401170028 58009

More Conditions Fewer Conditions

Pressione 30.04 in
Visibilità 10.0 miglia
Nuvole Molto nuvoloso 5000 ft
Coperto 11000 ft
Raffreddamento del vento 46 °F
Punto di rugiada 39 °F
Umidità 75%
Piovosità 0.00 in
Spessore del manto nevoso Non disponibile.
Raggi UV 0 fuori da 12
Polline .20 fuori da 12
Qualità dell'aria Non disponibile.
Flu Activity Non disponibile.
METAR KMDW 310553Z 27007KT 10SM -RA BKN050 OVC110 09/03 A3003 RMK AO2 RAB53 SLP170 P0000 60000 T00890028 10100 20089 401170028 58009

More Conditions Fewer Conditions

10-Day Weather Forecast

Almanac

Astronomia

Oct. 31, 2014 Alba Tramonto
Ora attuale
Crepuscolo civile
Crepuscolo nautico
Crepuscolo astronomico
Luna
Estensione della luce visibile
Lunghezza del giorno
Tomorrow will be .
, % of the Moon is Illuminated

Gli estremi di oggi

State Highs State Lows

Community

WunderPhotos

Upload Photos

1,766,571 foto caricate!

WunderBlogs® & News

Nearby

Qualità dell'aria

  Qualità dell'aria Indice AQ Inquinante
Not available.

Profondità neve

Stazione Profondità Altitudine

Attività sismica

Città  Distanza Mag. Data & Ora
Minimo Magnitudo Mostrato è 2.5.

Temperature delle acque costiere

Località Temperatura

Stazioni meteo nelle vicinanze